Terminal Aerodrome Forecast
Issued by NWS

Home | Current Version | Previous Version | Text Only | Print | Product List | Glossary On
Versions: 1 2 3 4 5 6 7 8 9 10 11 12 13 14 15 16 17 18 19 20 21 22 23 24 25 26 27 28 29
000
FTUS46 KPDT 222159 AAA
TAFYKM
TAF AMD
KYKM 222159Z 2222/2318 25004KT 6SM BR VCSH SCT010 OVC025
     FM230000 VRB03KT P6SM SCT040 BKN100
     FM230400 28007KT 3SM BR OVC010
     FM231500 VRB04KT P6SM SCT050=

USA.gov is the U.S. government's official web portal to all federal, state and local government web resources and services.